Time;durP1;ratioP1;P1;durP2;ratioP2;P2;SDS_P1;SDS_P2;PMS_P1;PMS_P2;Temp;Humidity;BMP_temperature;BMP_pressure;BME280_temperature;BME280_humidity;BME280_pressure;Samples;Min_cycle;Max_cycle;Signal;HPM_P1;HPM_P2
2023/02/01 00:02:40;;;;;;;50.50;29.30;;;;;;;2.61;82.78;99469.36;1762499;81;21752;-80
2023/02/01 00:05:46;;;;;;;57.62;30.50;;;;;;;2.51;82.96;99469.89;1770302;81;21230;-86
2023/02/01 00:08:54;;;;;;;56.30;30.90;;;;;;;2.51;82.90;99462.64;1770198;81;21214;-87
2023/02/01 00:12:03;;;;;;;52.58;30.15;;;;;;;2.11;84.28;99460.63;1771377;81;21171;-87
2023/02/01 00:15:09;;;;;;;48.10;28.25;;;;;;;2.18;84.58;99458.58;1771609;81;21190;-87
2023/02/01 00:18:15;;;;;;;51.68;28.90;;;;;;;2.35;83.73;99451.57;1770204;81;21210;-80
2023/02/01 00:21:15;;;;;;;51.65;28.02;;;;;;;2.44;83.19;99447.16;1771585;81;21191;-87
2023/02/01 00:24:21;;;;;;;52.98;29.40;;;;;;;2.43;83.15;99450.36;1771488;81;21151;-84
2023/02/01 00:27:28;;;;;;;45.28;26.02;;;;;;;2.33;83.51;99446.83;1770500;81;21182;-80
2023/02/01 00:30:33;;;;;;;46.02;26.40;;;;;;;2.35;83.32;99445.33;1771350;81;21218;-83
2023/02/01 00:33:32;;;;;;;48.52;30.72;;;;;;;2.22;83.09;99440.26;1770218;81;21234;-88
2023/02/01 00:36:37;;;;;;;64.77;37.88;;;;;;;2.31;83.14;99433.99;1770696;81;21774;-87
2023/02/01 00:39:44;;;;;;;72.80;43.65;;;;;;;2.29;83.00;99435.47;1771625;81;21171;-87
2023/02/01 00:42:50;;;;;;;60.03;35.23;;;;;;;2.14;83.07;99438.27;1770742;81;21735;-81
2023/02/01 00:45:56;;;;;;;66.80;36.60;;;;;;;2.07;84.21;99439.85;1771307;81;21175;-81
2023/02/01 00:49:02;;;;;;;65.08;37.00;;;;;;;2.23;83.38;99438.75;1771620;81;21228;-84
2023/02/01 00:52:07;;;;;;;57.83;33.23;;;;;;;2.29;83.37;99438.16;1771313;81;21194;-88
2023/02/01 00:55:13;;;;;;;52.95;30.85;;;;;;;2.32;83.39;99434.34;1771665;81;21147;-88
2023/02/01 00:58:19;;;;;;;59.30;32.23;;;;;;;2.36;83.17;99428.16;1770050;80;21179;-81
2023/02/01 01:01:28;;;;;;;52.58;28.47;;;;;;;2.30;83.24;99423.67;1770426;80;21262;-80
2023/02/01 01:04:35;;;;;;;49.50;27.85;;;;;;;1.98;84.39;99414.58;1772240;81;21199;-87
2023/02/01 01:07:42;;;;;;;59.83;33.58;;;;;;;2.20;83.58;99414.75;1770372;81;21183;-80
2023/02/01 01:10:49;;;;;;;58.13;34.05;;;;;;;2.08;83.26;99409.17;1771632;81;21206;-87
2023/02/01 01:13:56;;;;;;;63.70;36.17;;;;;;;2.04;83.52;99405.91;1771427;81;21191;-80
2023/02/01 01:17:02;;;;;;;54.48;31.65;;;;;;;2.01;84.10;99409.38;1771141;81;21349;-87
2023/02/01 01:20:08;;;;;;;69.42;39.50;;;;;;;1.99;84.38;99401.95;1770124;81;21171;-87
2023/02/01 01:23:15;;;;;;;61.73;36.10;;;;;;;1.67;85.58;99398.20;1770465;81;21202;-88
2023/02/01 01:26:27;;;;;;;48.92;29.25;;;;;;;1.60;85.46;99400.62;1771598;81;21167;-81
2023/02/01 01:29:33;;;;;;;55.33;30.70;;;;;;;1.84;84.51;99402.03;1770282;81;21198;-81
2023/02/01 01:32:40;;;;;;;54.25;30.62;;;;;;;1.40;85.51;99403.77;1770705;81;21301;-87
2023/02/01 01:35:45;;;;;;;61.65;34.27;;;;;;;1.53;85.65;99403.50;1771624;81;21176;-87
2023/02/01 01:38:52;;;;;;;61.00;35.38;;;;;;;1.63;85.02;99407.55;1771615;81;21168;-80
2023/02/01 01:41:59;;;;;;;58.20;31.30;;;;;;;1.70;85.32;99413.59;1771401;81;21245;-80
2023/02/01 01:45:11;;;;;;;58.60;33.08;;;;;;;1.82;85.34;99417.48;1771088;81;21199;-88
2023/02/01 01:48:25;;;;;;;58.65;32.50;;;;;;;1.86;85.16;99410.32;1770485;81;21237;-81
2023/02/01 01:51:30;;;;;;;;;;;;;;;1.95;85.18;99409.97;1774202;81;21333;-87
2023/02/01 01:54:39;;;;;;;61.25;31.52;;;;;;;2.03;85.21;99412.80;1771800;81;20192;-80
2023/02/01 01:57:43;;;;;;;62.98;30.88;;;;;;;2.02;85.24;99405.69;1771013;81;21321;-80
2023/02/01 02:00:35;;;;;;;56.83;29.67;;;;;;;2.13;84.84;99409.59;1770964;81;21762;-87
2023/02/01 02:03:44;;;;;;;;;;;;;;;1.97;85.17;99410.66;1772957;81;21178;-80
2023/02/01 02:07:12;;;;;;;60.00;29.35;;;;;;;1.98;85.29;99409.19;1771229;81;20187;-87
2023/02/01 02:10:20;;;;;;;54.35;29.15;;;;;;;1.96;85.83;99404.92;1771646;81;21176;-80
2023/02/01 02:13:25;;;;;;;49.70;26.42;;;;;;;2.07;85.61;99396.69;1771856;81;21210;-88
2023/02/01 02:16:56;;;;;;;52.00;25.95;;;;;;;1.87;86.26;99394.98;1770274;81;21199;-80
2023/02/01 02:20:20;;;;;;;;;;;;;;;2.14;85.01;99393.75;1774382;81;21162;-79
2023/02/01 02:23:52;;;;;;;54.63;28.40;;;;;;;2.18;84.28;99395.17;1770283;81;20607;-88
2023/02/01 02:27:22;;;;;;;56.18;29.12;;;;;;;1.73;85.57;99396.27;1771466;81;21842;-79
2023/02/01 02:30:38;;;;;;;58.05;28.92;;;;;;;1.98;84.84;99394.86;1771141;81;21171;-79
2023/02/01 02:34:10;;;;;;;53.17;27.52;;;;;;;2.01;84.36;99392.70;1771604;81;21207;-84
2023/02/01 02:37:33;;;;;;;53.13;29.87;;;;;;;1.70;85.48;99394.72;1771118;81;21657;-81
2023/02/01 02:41:01;;;;;;;53.13;27.40;;;;;;;1.82;85.94;99396.77;1771408;81;21159;-87
2023/02/01 02:47:55;;;;;;;58.75;29.98;;;;;;;2.07;84.33;99396.69;1771202;81;21207;-87
2023/02/01 02:54:50;;;;;;;54.60;28.75;;;;;;;2.10;84.33;99403.12;1771840;81;21200;-87
2023/02/01 03:04:44;;;;;;;58.80;31.42;;;;;;;2.34;83.56;99402.65;1740166;82;21233;-80
2023/02/01 03:08:25;;;;;;;52.45;28.40;;;;;;;2.38;83.42;99395.96;1739337;82;21212;-81
2023/02/01 03:12:55;;;;;;;58.45;30.48;;;;;;;2.41;83.17;99397.53;1707666;81;21233;-88
2023/02/01 03:14:39;;;;;;;67.37;31.50;;;;;;;2.45;83.12;99393.55;1731548;83;21209;-79
2023/02/01 03:17:47;;;;;;;61.30;31.00;;;;;;;2.08;84.43;99391.64;1739366;82;21848;-80
2023/02/01 03:20:55;;;;;;;56.60;29.32;;;;;;;2.37;83.70;99392.07;1740191;82;21188;-88
2023/02/01 03:24:01;;;;;;;59.48;30.35;;;;;;;2.42;83.21;99393.83;1709013;84;21201;-87
2023/02/01 03:27:14;;;;;;;56.63;29.98;;;;;;;2.43;83.28;99399.58;1730436;83;21245;-87
2023/02/01 03:30:40;;;;;;;55.25;29.90;;;;;;;2.14;83.88;99392.41;1739989;82;21244;-88
2023/02/01 03:33:45;;;;;;;54.23;28.77;;;;;;;2.06;84.55;99397.66;1740267;82;21209;-87
2023/02/01 03:36:59;;;;;;;59.73;30.17;;;;;;;2.13;84.00;99393.91;1708974;84;21745;-79
2023/02/01 03:40:12;;;;;;;53.70;30.77;;;;;;;2.12;84.15;99387.66;1731757;83;21169;-82
2023/02/01 03:43:20;;;;;;;51.40;29.65;;;;;;;2.22;83.26;99387.64;1738197;82;21248;-79
2023/02/01 03:46:21;;;;;;;;;;;;;;;2.24;83.34;99386.48;1742260;82;21789;-87
2023/02/01 03:49:45;;;;;;;57.60;30.20;;;;;;;2.26;83.61;99391.25;1708148;84;20192;-85
2023/02/01 03:52:58;;;;;;;58.10;31.62;;;;;;;2.29;83.66;99393.64;1730815;83;21248;-88
2023/02/01 03:56:03;;;;;;;55.70;30.57;;;;;;;2.44;82.98;99398.06;1738378;82;21200;-86
2023/02/01 03:59:09;;;;;;;56.85;29.50;;;;;;;2.40;82.94;99395.34;1739291;82;21180;-85
2023/02/01 04:02:16;;;;;;;60.00;31.97;;;;;;;2.33;83.25;99398.75;1707622;84;21936;-81
2023/02/01 04:05:21;;;;;;;56.88;31.37;;;;;;;2.33;83.07;99392.86;1789881;80;21175;-81
2023/02/01 04:08:28;;;;;;;60.60;31.57;;;;;;;2.36;82.75;99402.52;1754572;82;21785;-81
2023/02/01 04:11:33;;;;;;;56.68;30.70;;;;;;;2.30;82.76;99403.43;1791352;80;21229;-88
2023/02/01 04:14:39;;;;;;;51.33;27.87;;;;;;;2.27;83.24;99402.39;1755965;82;21193;-83
2023/02/01 04:17:45;;;;;;;52.85;26.82;;;;;;;2.38;82.81;99393.77;1791226;80;21187;-86
2023/02/01 04:20:50;;;;;;;56.00;28.32;;;;;;;2.28;82.56;99396.49;1755965;78;21741;-88
2023/02/01 04:23:57;;;;;;;52.83;27.07;;;;;;;2.14;82.91;99401.84;1791410;80;21163;-87
2023/02/01 04:27:04;;;;;;;54.95;29.48;;;;;;;2.15;82.97;99410.28;1755692;82;21188;-79
2023/02/01 04:30:12;;;;;;;62.30;30.77;;;;;;;1.99;83.50;99411.38;1790268;80;21187;-82
2023/02/01 04:33:18;;;;;;;62.50;35.17;;;;;;;1.86;83.60;99409.47;1755498;79;21726;-81
2023/02/01 04:36:24;;;;;;;55.15;32.17;;;;;;;1.54;83.67;99406.55;1791313;80;21151;-80
2023/02/01 04:39:31;;;;;;;66.25;36.60;;;;;;;1.64;83.81;99405.20;1755278;82;21229;-87
2023/02/01 04:42:29;;;;;;;63.02;32.03;;;;;;;1.56;84.50;99401.05;1791166;80;21206;-80
2023/02/01 04:45:34;;;;;;;63.33;34.30;;;;;;;1.66;84.93;99401.89;1755638;82;21209;-80
2023/02/01 04:48:41;;;;;;;56.33;30.50;;;;;;;1.76;84.74;99403.58;1790246;80;21235;-88
2023/02/01 04:51:47;;;;;;;56.20;29.40;;;;;;;1.54;85.15;99410.09;1755691;82;21189;-88
2023/02/01 04:54:54;;;;;;;59.15;31.90;;;;;;;1.63;84.75;99411.09;1791449;80;21160;-81
2023/02/01 04:58:00;;;;;;;63.10;32.30;;;;;;;1.78;84.50;99410.17;1754912;82;21205;-81
2023/02/01 05:01:05;;;;;;;62.67;31.57;;;;;;;1.49;85.49;99408.82;1789915;80;21179;-88
2023/02/01 05:04:11;;;;;;;88.70;50.10;;;;;;;1.49;85.92;99406.13;1754306;81;21169;-90
2023/02/01 05:07:17;;;;;;;76.35;41.00;;;;;;;1.48;85.83;99409.32;1771192;81;21207;-89
2023/02/01 05:10:22;;;;;;;70.28;37.13;;;;;;;1.64;85.74;99418.19;1770880;81;21167;-82
2023/02/01 05:16:52;;;;;;;80.47;43.83;;;;;;;1.54;85.79;99426.27;1770028;80;21223;-89
2023/02/01 05:19:58;;;;;;;90.32;48.00;;;;;;;1.64;85.51;99428.97;1770324;81;21237;-88
2023/02/01 05:23:06;;;;;;;78.17;42.05;;;;;;;1.28;86.36;99430.50;1770327;81;21209;-80
2023/02/01 05:26:11;;;;;;;84.97;47.55;;;;;;;1.23;86.92;99430.91;1770184;81;21218;-79
2023/02/01 05:29:18;;;;;;;76.80;46.28;;;;;;;1.33;87.15;99431.44;1771591;81;21744;-87
2023/02/01 05:32:24;;;;;;;71.22;37.53;;;;;;;1.68;86.02;99442.52;1785667;79;21218;-80
2023/02/01 05:35:31;;;;;;;68.00;33.90;;;;;;;1.45;85.82;99447.31;1798747;78;21138;-80
2023/02/01 05:38:38;;;;;;;60.17;31.97;;;;;;;1.47;86.74;99449.39;1823055;78;21198;-80
2023/02/01 05:41:43;;;;;;;69.72;34.78;;;;;;;1.54;86.75;99452.37;1821721;78;21180;-80
2023/02/01 05:44:48;;;;;;;75.55;35.58;;;;;;;1.73;87.09;99452.89;1803491;78;21239;-87
2023/02/01 05:47:54;;;;;;;81.02;37.23;;;;;;;1.96;86.54;99452.97;1802541;79;21771;-81
2023/02/01 05:51:00;;;;;;;64.25;35.15;;;;;;;2.05;86.26;99453.96;1781600;78;21112;-89
2023/02/01 05:54:06;;;;;;;71.97;35.85;;;;;;;2.17;86.03;99456.03;1822635;77;21139;-80
2023/02/01 05:57:13;;;;;;;76.20;35.40;;;;;;;2.33;85.73;99456.27;1793819;80;21192;-88
2023/02/01 06:00:20;;;;;;;67.35;33.33;;;;;;;2.39;85.36;99452.14;1772368;79;21178;-80
2023/02/01 06:03:27;;;;;;;71.40;34.35;;;;;;;2.54;84.84;99460.13;1790801;79;21171;-88
2023/02/01 06:06:32;;;;;;;64.53;32.80;;;;;;;2.55;84.64;99466.75;1813954;78;21803;-89
2023/02/01 06:09:38;;;;;;;63.85;32.20;;;;;;;2.62;84.65;99470.20;1762421;81;21155;-88
2023/02/01 06:12:48;;;;;;;84.47;37.75;;;;;;;2.62;84.47;99475.61;1729961;81;21775;-88
2023/02/01 06:15:52;;;;;;;74.15;34.10;;;;;;;2.42;84.33;99483.75;1774174;79;21807;-89
2023/02/01 06:18:58;;;;;;;83.45;38.83;;;;;;;2.48;84.11;99483.66;1762297;80;21153;-80
2023/02/01 06:22:06;;;;;;;78.45;38.17;;;;;;;2.35;84.10;99479.06;1790439;79;21180;-89
2023/02/01 06:25:13;;;;;;;75.65;38.45;;;;;;;2.33;84.37;99483.27;1784250;79;21204;-81
2023/02/01 06:28:19;;;;;;;73.17;36.88;;;;;;;2.44;84.14;99480.39;1779499;79;21179;-90
2023/02/01 06:31:25;;;;;;;69.40;35.43;;;;;;;2.41;84.20;99479.36;1778899;79;21175;-88
2023/02/01 06:34:30;;;;;;;72.03;35.17;;;;;;;2.54;83.77;99481.72;1785323;79;21795;-88
2023/02/01 06:37:35;;;;;;;72.15;36.40;;;;;;;2.66;83.25;99487.32;1787711;79;21231;-89
2023/02/01 06:40:42;;;;;;;70.03;34.95;;;;;;;2.68;82.93;99485.34;1782682;79;21235;-87
2023/02/01 06:43:48;;;;;;;72.05;35.33;;;;;;;2.70;82.82;99482.48;1781093;80;21164;-87
2023/02/01 06:46:54;;;;;;;78.40;36.35;;;;;;;2.76;82.77;99485.95;1766436;79;21219;-87
2023/02/01 06:50:00;;;;;;;71.53;35.40;;;;;;;2.95;82.21;99484.53;1800060;79;21206;-88
2023/02/01 06:53:06;;;;;;;70.37;35.17;;;;;;;2.87;82.42;99493.02;1782702;79;21151;-88
2023/02/01 06:56:13;;;;;;;66.37;34.18;;;;;;;2.93;82.35;99487.05;1774740;80;21226;-87
2023/02/01 06:59:23;;;;;;;74.47;36.58;;;;;;;2.99;81.96;99491.84;1783749;79;21200;-87
2023/02/01 07:02:28;;;;;;;66.62;35.33;;;;;;;2.81;82.47;99491.25;1786807;77;21163;-88
2023/02/01 07:05:35;;;;;;;62.25;32.93;;;;;;;2.97;82.40;99489.30;1777232;78;22117;-88
2023/02/01 07:08:43;;;;;;;67.97;35.50;;;;;;;2.97;82.07;99493.36;1779234;79;21751;-79
2023/02/01 07:11:50;;;;;;;69.12;36.95;;;;;;;3.14;81.28;99495.76;1777860;79;21175;-79
2023/02/01 07:14:56;;;;;;;61.73;33.05;;;;;;;3.35;80.80;99498.75;1789235;79;21826;-79
2023/02/01 07:18:03;;;;;;;70.80;35.80;;;;;;;3.60;79.89;99496.67;1780521;79;21740;-79
2023/02/01 07:21:09;;;;;;;71.70;35.55;;;;;;;4.60;76.45;99503.20;1799540;79;21201;-87
2023/02/01 07:24:14;;;;;;;67.35;33.95;;;;;;;4.41;75.65;99505.25;1793402;79;21195;-88
2023/02/01 07:27:21;;;;;;;71.05;34.40;;;;;;;4.25;75.46;99506.81;1795872;78;21211;-88
2023/02/01 07:30:27;;;;;;;69.10;35.98;;;;;;;4.26;74.60;99507.66;1786372;79;21188;-80
2023/02/01 07:33:34;;;;;;;67.78;34.38;;;;;;;3.88;75.34;99510.17;1790452;79;21215;-80
2023/02/01 07:36:41;;;;;;;54.77;30.55;;;;;;;3.91;74.77;99509.88;1780957;80;21811;-80
2023/02/01 07:39:50;;;;;;;59.35;31.68;;;;;;;3.46;75.54;99505.30;1792813;79;21183;-80
2023/02/01 07:42:58;;;;;;;60.17;28.27;;;;;;;3.46;76.17;99510.20;1786053;77;21172;-80
2023/02/01 07:46:04;;;;;;;59.88;32.75;;;;;;;3.43;76.34;99505.58;1786566;79;21189;-80
2023/02/01 07:49:12;;;;;;;47.45;26.12;;;;;;;3.53;75.96;99507.26;1782761;79;21172;-80
2023/02/01 07:52:17;;;;;;;51.83;28.10;;;;;;;3.44;76.14;99503.25;1783058;79;21179;-80
2023/02/01 07:55:25;;;;;;;50.52;28.60;;;;;;;3.44;76.00;99503.25;1780411;79;21182;-80
2023/02/01 07:58:31;;;;;;;55.17;30.12;;;;;;;3.35;75.40;99510.41;1782849;79;21230;-78
2023/02/01 08:01:37;;;;;;;56.40;29.40;;;;;;;3.35;75.29;99512.27;1783665;79;21716;-79
2023/02/01 08:04:42;;;;;;;62.45;30.85;;;;;;;3.20;75.75;99512.75;1781669;79;21189;-89
2023/02/01 08:07:48;;;;;;;60.43;31.48;;;;;;;3.29;75.66;99511.86;1781057;79;21211;-80
2023/02/01 08:10:55;;;;;;;62.83;30.23;;;;;;;3.35;75.52;99508.21;1782352;79;21186;-78
2023/02/01 08:14:00;;;;;;;56.63;31.10;;;;;;;3.34;75.62;99501.95;1778345;79;21195;-78
2023/02/01 08:17:06;;;;;;;54.88;29.40;;;;;;;3.45;75.20;99504.95;1782901;79;21223;-77
2023/02/01 08:20:11;;;;;;;54.25;27.87;;;;;;;3.38;75.46;99506.53;1800784;78;21795;-78
2023/02/01 08:23:17;;;;;;;48.83;25.23;;;;;;;3.32;75.52;99507.99;1776575;79;21655;-78
2023/02/01 08:26:28;;;;;;;49.53;27.07;;;;;;;3.11;75.56;99508.23;1783932;79;21859;-77
2023/02/01 08:29:33;;;;;;;51.75;26.77;;;;;;;3.30;75.03;99504.09;1780913;79;21836;-77
2023/02/01 08:32:38;;;;;;;51.95;25.77;;;;;;;3.54;74.41;99498.64;1778304;79;21748;-88
2023/02/01 08:35:45;;;;;;;52.30;26.33;;;;;;;3.64;74.02;99488.61;1785222;79;21832;-89
2023/02/01 08:38:51;;;;;;;56.00;27.87;;;;;;;3.64;74.20;99495.38;1788539;79;21211;-89
2023/02/01 08:45:40;;;;;;;42.15;23.40;;;;;;;4.16;73.43;99479.33;1790603;79;21373;-88
2023/02/01 08:48:50;;;;;;;43.58;23.55;;;;;;;4.30;72.73;99485.54;1784868;79;21251;-78
2023/02/01 08:51:56;;;;;;;41.35;22.45;;;;;;;4.51;72.48;99487.05;1784730;79;21235;-79
2023/02/01 08:55:05;;;;;;;43.23;23.90;;;;;;;4.41;72.79;99479.52;1779830;79;21160;-77
2023/02/01 08:58:13;;;;;;;39.20;22.22;;;;;;;4.59;72.52;99477.64;1783608;79;21178;-78
2023/02/01 09:01:22;;;;;;;39.60;20.60;;;;;;;4.65;71.87;99479.70;1752136;79;21165;-79
2023/02/01 09:04:27;;;;;;;37.98;20.77;;;;;;;4.75;71.38;99470.99;1780094;79;21170;-79
2023/02/01 09:07:33;;;;;;;28.87;17.67;;;;;;;4.92;70.92;99475.98;1783727;78;21178;-78
2023/02/01 09:10:38;;;;;;;29.67;18.00;;;;;;;5.20;69.90;99468.52;1778077;79;21336;-77
2023/02/01 09:13:44;;;;;;;26.82;17.50;;;;;;;5.15;69.88;99454.60;1766208;79;21119;-77
2023/02/01 09:16:51;;;;;;;28.70;17.52;;;;;;;5.01;69.95;99461.98;1765430;79;21495;-77
2023/02/01 09:19:57;;;;;;;27.50;16.93;;;;;;;5.00;70.40;99463.84;1772791;79;21162;-77
2023/02/01 09:23:06;;;;;;;27.32;17.00;;;;;;;5.20;69.73;99460.89;1769836;79;21185;-78
2023/02/01 09:26:12;;;;;;;24.72;16.12;;;;;;;5.30;68.75;99454.83;1773608;79;21802;-88
2023/02/01 09:29:22;;;;;;;23.98;16.70;;;;;;;5.31;68.17;99450.59;1768577;79;21142;-87
2023/02/01 09:32:30;;;;;;;29.72;18.17;;;;;;;5.21;68.69;99452.59;1769976;79;21191;-88
2023/02/01 09:35:38;;;;;;;26.20;16.60;;;;;;;5.37;68.55;99444.53;1769489;79;21150;-87
2023/02/01 09:38:43;;;;;;;27.50;16.25;;;;;;;5.26;68.70;99443.45;1768925;80;21194;-88
2023/02/01 09:42:16;;;;;;;33.10;18.48;;;;;;;5.56;67.68;99452.90;1768689;79;21265;-89
2023/02/01 09:45:41;;;;;;;24.52;15.75;;;;;;;5.28;68.39;99459.07;1769206;80;21749;-88
2023/02/01 09:48:47;;;;;;;21.07;14.40;;;;;;;5.10;68.86;99460.51;1764333;80;21165;-88
2023/02/01 09:51:55;;;;;;;24.72;15.55;;;;;;;4.83;68.81;99449.34;1767814;79;21222;-88
2023/02/01 09:55:08;;;;;;;33.20;16.67;;;;;;;4.75;69.41;99449.80;1766987;79;21166;-87
2023/02/01 09:58:39;;;;;;;22.87;14.78;;;;;;;4.97;69.57;99447.90;1769376;80;21201;-85
2023/02/01 10:01:45;;;;;;;20.85;12.20;;;;;;;4.68;69.47;99437.41;1770233;81;21262;-77
2023/02/01 10:04:51;;;;;;;23.12;15.80;;;;;;;4.96;69.58;99431.81;1762391;79;21270;-83
2023/02/01 10:08:10;;;;;;;19.07;13.35;;;;;;;5.08;68.88;99435.44;1762740;79;21201;-83
2023/02/01 10:11:51;;;;;;;20.43;14.03;;;;;;;5.20;69.32;99437.84;1768163;79;21804;-77
2023/02/01 10:15:24;;;;;;;24.87;15.20;;;;;;;5.23;69.04;99436.17;1777903;79;21204;-77
2023/02/01 10:18:54;;;;;;;17.82;11.38;;;;;;;5.16;68.91;99434.61;1724579;82;21197;-77
2023/02/01 10:22:17;;;;;;;15.00;10.32;;;;;;;5.04;69.10;99442.70;1730039;80;21753;-77
2023/02/01 10:25:49;;;;;;;19.57;12.68;;;;;;;4.83;69.07;99441.72;1788065;79;21172;-83
2023/02/01 10:28:43;;;;;;;17.05;11.35;;;;;;;4.49;69.13;99446.59;1769033;79;21171;-77
2023/02/01 10:31:49;;;;;;;18.55;12.30;;;;;;;4.30;69.75;99446.79;1782171;79;21168;-82
2023/02/01 10:35:06;;;;;;;17.20;11.88;;;;;;;4.14;70.43;99446.16;1782701;80;21730;-77
2023/02/01 10:38:14;;;;;;;19.90;12.80;;;;;;;4.14;71.14;99451.58;1781242;79;21159;-77
2023/02/01 10:41:29;;;;;;;19.17;12.47;;;;;;;4.17;71.86;99447.19;1773789;78;21159;-77
2023/02/01 10:44:35;;;;;;;19.52;11.63;;;;;;;3.80;73.46;99445.99;1782989;79;21156;-77
2023/02/01 10:47:41;;;;;;;17.80;10.82;;;;;;;3.87;73.50;99449.80;1780318;79;21187;-76
2023/02/01 10:50:55;;;;;;;14.78;9.60;;;;;;;3.91;72.26;99447.14;1789717;79;21190;-82
2023/02/01 10:53:52;;;;;;;17.77;10.63;;;;;;;3.86;72.08;99446.75;1773276;79;21175;-83
2023/02/01 10:56:57;;;;;;;17.82;11.05;;;;;;;3.53;71.76;99450.98;1780344;79;21675;-77
2023/02/01 11:00:04;;;;;;;17.23;10.55;;;;;;;3.18;73.61;99451.23;1770059;80;21160;-77
2023/02/01 11:03:09;;;;;;;19.50;11.50;;;;;;;3.12;74.26;99441.03;1780742;79;21740;-83
2023/02/01 11:06:22;;;;;;;16.02;10.72;;;;;;;3.26;74.58;99438.33;1767505;79;21510;-84
2023/02/01 11:09:31;;;;;;;16.32;10.45;;;;;;;3.55;74.47;99443.05;1783169;79;21754;-83
2023/02/01 11:12:41;;;;;;;15.70;10.75;;;;;;;3.51;74.05;99442.15;1779857;79;21840;-77
2023/02/01 11:15:45;;;;;;;;;;;;;;;3.56;73.46;99441.19;1776707;79;21160;-84
2023/02/01 11:18:52;;;;;;;15.48;10.10;;;;;;;3.38;72.93;99447.06;1759187;79;20276;-83
2023/02/01 11:22:03;;;;;;;18.50;12.23;;;;;;;3.27;73.17;99440.87;1781000;79;21714;-76
2023/02/01 11:25:09;;;;;;;18.37;12.63;;;;;;;3.33;73.74;99438.05;1790922;79;21518;-77
2023/02/01 11:28:16;;;;;;;17.67;12.00;;;;;;;3.22;74.29;99435.57;1773912;79;21187;-77
2023/02/01 11:31:21;;;;;;;19.32;12.07;;;;;;;3.26;74.05;99436.47;1752307;80;21143;-78
2023/02/01 11:34:29;;;;;;;15.30;10.93;;;;;;;3.14;73.92;99434.11;1772979;79;21174;-78
2023/02/01 11:37:47;;;;;;;17.57;11.40;;;;;;;3.15;74.40;99429.89;1769744;79;21160;-80
2023/02/01 11:40:52;;;;;;;17.40;11.45;;;;;;;3.21;74.46;99432.52;1769457;80;21756;-85
2023/02/01 11:44:07;;;;;;;20.25;12.03;;;;;;;3.26;74.66;99435.63;1771597;79;21167;-78
2023/02/01 11:47:34;;;;;;;22.82;12.95;;;;;;;3.36;74.81;99439.63;1785089;79;21164;-78
2023/02/01 11:50:59;;;;;;;19.25;11.63;;;;;;;3.29;74.65;99436.66;1783440;79;21187;-77
2023/02/01 11:54:38;;;;;;;18.10;11.08;;;;;;;3.43;74.64;99440.19;1782608;79;21700;-77
2023/02/01 11:58:13;;;;;;;20.20;12.35;;;;;;;3.42;74.27;99451.17;1789087;78;21256;-78
2023/02/01 12:01:41;;;;;;;18.32;12.25;;;;;;;3.31;73.97;99442.78;1780028;79;21728;-83
2023/02/01 12:05:05;;;;;;;19.87;12.55;;;;;;;3.44;74.33;99447.83;1786117;79;21180;-77
2023/02/01 12:08:27;;;;;;;22.85;12.88;;;;;;;3.28;74.39;99446.61;1719621;79;21189;-77
2023/02/01 12:11:46;;;;;;;23.10;14.35;;;;;;;3.35;74.42;99444.18;1785118;79;21231;-77
2023/02/01 12:15:17;;;;;;;26.82;15.32;;;;;;;3.20;74.41;99459.17;1741548;81;21179;-77
2023/02/01 12:18:34;;;;;;;21.17;12.70;;;;;;;3.08;74.34;99449.08;1747749;81;21164;-84
2023/02/01 12:21:53;;;;;;;24.40;15.68;;;;;;;3.05;74.64;99449.36;1748870;81;21617;-78
2023/02/01 12:25:16;;;;;;;25.17;15.20;;;;;;;3.10;75.02;99451.12;1749609;80;21772;-78
2023/02/01 12:29:14;;;;;;;26.00;16.20;;;;;;;3.13;75.32;99444.08;1745371;81;21144;-84
2023/02/01 12:32:48;;;;;;;29.05;15.70;;;;;;;3.21;75.37;99448.23;1761588;80;21868;-85
2023/02/01 12:36:17;;;;;;;26.68;15.48;;;;;;;3.31;74.89;99450.38;1746394;81;21172;-78
2023/02/01 12:39:38;;;;;;;28.73;17.12;;;;;;;3.19;75.21;99452.08;1744135;80;21182;-79
2023/02/01 12:43:21;;;;;;;29.80;17.27;;;;;;;3.31;75.41;99458.48;1731937;82;21151;-78
2023/02/01 12:46:49;;;;;;;26.20;15.33;;;;;;;3.12;75.45;99457.24;1744865;80;21202;-78
2023/02/01 12:50:03;;;;;;;22.82;13.13;;;;;;;3.10;75.62;99442.16;1747253;80;21788;-80
2023/02/01 12:53:23;;;;;;;24.37;15.40;;;;;;;3.05;75.51;99443.45;1733514;82;21276;-78
2023/02/01 12:56:46;;;;;;;28.15;16.87;;;;;;;3.00;75.53;99440.86;1709954;83;21240;-84
2023/02/01 13:00:11;;;;;;;28.77;17.40;;;;;;;3.07;75.59;99450.09;1706368;82;21202;-80
2023/02/01 13:03:59;;;;;;;28.12;16.52;;;;;;;3.10;75.84;99451.12;1703278;83;21199;-85
2023/02/01 13:07:16;;;;;;;28.17;16.65;;;;;;;3.13;75.34;99458.94;1726354;83;21242;-78
2023/02/01 13:10:43;;;;;;;27.65;16.70;;;;;;;3.02;75.92;99458.64;1723097;82;21216;-78
2023/02/01 13:14:26;;;;;;;28.67;16.85;;;;;;;3.16;75.74;99464.05;1746711;79;21227;-78
2023/02/01 13:17:35;;;;;;;29.18;16.55;;;;;;;3.10;75.45;99460.57;1781937;79;21192;-78
2023/02/01 13:20:46;;;;;;;24.57;15.50;;;;;;;3.00;75.84;99459.27;1758346;81;21173;-83
2023/02/01 13:23:55;;;;;;;24.32;14.87;;;;;;;2.91;75.89;99462.02;1734918;81;21220;-79
2023/02/01 13:27:02;;;;;;;26.65;15.90;;;;;;;2.95;75.47;99463.42;1726289;81;21195;-85
2023/02/01 13:30:18;;;;;;;30.52;17.10;;;;;;;2.53;76.52;99459.28;1740114;82;21168;-84
2023/02/01 13:33:47;;;;;;;31.40;17.52;;;;;;;2.37;77.28;99455.00;1784431;78;21128;-84
2023/02/01 13:37:27;;;;;;;34.18;18.50;;;;;;;2.35;77.94;99462.87;1795307;78;21237;-84
2023/02/01 13:41:02;;;;;;;28.38;17.27;;;;;;;2.58;77.65;99470.14;1783589;79;21129;-79
2023/02/01 13:44:15;;;;;;;36.40;20.77;;;;;;;2.77;77.07;99465.53;1734283;81;21765;-86
2023/02/01 13:47:34;;;;;;;39.30;21.05;;;;;;;2.81;77.16;99471.00;1770479;79;21160;-85
2023/02/01 13:50:45;;;;;;;31.68;17.25;;;;;;;2.56;78.23;99480.59;1769152;79;21786;-85
2023/02/01 13:53:55;;;;;;;32.85;18.57;;;;;;;2.48;78.83;99483.66;1775105;79;21190;-84
2023/02/01 13:57:01;;;;;;;30.60;17.70;;;;;;;2.47;78.79;99480.12;1777828;78;21182;-79
2023/02/01 14:00:37;;;;;;;37.00;18.62;;;;;;;2.44;78.79;99485.80;1782481;79;21732;-79
2023/02/01 14:03:54;;;;;;;41.45;21.50;;;;;;;2.42;78.99;99486.95;1781736;79;21808;-85
2023/02/01 14:07:02;;;;;;;38.63;21.23;;;;;;;2.44;79.00;99483.59;1751222;80;21195;-83
2023/02/01 14:10:45;;;;;;;38.67;19.42;;;;;;;2.44;79.20;99486.30;1749174;81;21611;-86
2023/02/01 14:13:51;;;;;;;35.15;19.92;;;;;;;2.44;79.36;99487.64;1750968;82;21795;-79
2023/02/01 14:17:10;;;;;;;39.67;21.15;;;;;;;2.43;79.63;99491.34;1738547;81;21200;-85
2023/02/01 14:20:52;;;;;;;42.50;20.57;;;;;;;2.62;79.09;99489.95;1739626;82;21208;-80
2023/02/01 14:24:07;;;;;;;36.95;19.55;;;;;;;2.63;79.41;99503.80;1734755;81;21180;-85
2023/02/01 14:27:28;;;;;;;34.90;18.42;;;;;;;2.64;79.41;99505.53;1740592;81;21211;-79
2023/02/01 14:30:33;;;;;;;37.58;19.07;;;;;;;2.59;79.50;99513.22;1740381;82;21215;-80
2023/02/01 14:33:39;;;;;;;42.98;22.20;;;;;;;2.16;80.55;99509.11;1739116;81;21227;-86
2023/02/01 14:36:52;;;;;;;40.85;21.40;;;;;;;2.14;81.00;99512.45;1740438;81;21267;-85
2023/02/01 14:40:10;;;;;;;42.78;23.22;;;;;;;2.16;80.62;99518.55;1740677;82;21731;-81
2023/02/01 14:43:16;;;;;;;36.35;20.45;;;;;;;1.99;80.77;99517.43;1740536;81;21251;-80
2023/02/01 14:46:23;;;;;;;41.92;22.45;;;;;;;1.89;80.84;99517.92;1739331;81;21767;-80
2023/02/01 14:49:29;;;;;;;41.05;24.15;;;;;;;1.65;81.38;99511.57;1741070;82;21129;-86
2023/02/01 14:53:19;;;;;;;48.58;25.62;;;;;;;1.57;81.97;99519.48;1740309;81;21207;-78
2023/02/01 14:56:25;;;;;;;41.48;22.37;;;;;;;1.49;82.63;99522.02;1741210;81;21740;-78
2023/02/01 14:59:33;;;;;;;40.35;23.05;;;;;;;1.56;83.32;99521.84;1740823;82;21191;-78
2023/02/01 15:02:39;;;;;;;39.65;21.90;;;;;;;1.61;83.60;99530.36;1740365;81;21214;-85
2023/02/01 15:05:47;;;;;;;43.33;23.70;;;;;;;1.67;83.80;99532.49;1726557;82;21172;-79
2023/02/01 15:08:54;;;;;;;43.92;23.62;;;;;;;1.67;84.06;99535.19;1739762;82;21199;-85
2023/02/01 15:12:14;;;;;;;49.13;24.65;;;;;;;1.74;84.08;99534.13;1740709;81;21187;-78
2023/02/01 15:15:33;;;;;;;49.25;25.15;;;;;;;1.89;84.01;99540.00;1740877;82;21192;-78